createdAt,value
2018-07-09T00:01:06.921Z,59.96
2018-07-09T00:03:36.057Z,59.79
2018-07-09T00:06:05.110Z,60.29
2018-07-09T00:08:34.289Z,61.02
2018-07-09T00:11:06.345Z,61.84
2018-07-09T00:13:36.438Z,61.86
2018-07-09T00:16:05.568Z,61.63
2018-07-09T00:18:34.650Z,62.37
2018-07-09T00:21:03.710Z,63.01
2018-07-09T00:23:32.877Z,62.15
2018-07-09T00:26:01.925Z,61.98
2018-07-09T00:28:31.021Z,63.16
2018-07-09T00:31:00.104Z,63.93
2018-07-09T00:33:29.285Z,63.79
2018-07-09T00:35:58.929Z,63.63
2018-07-09T00:38:28.033Z,63.32
2018-07-09T00:40:57.173Z,63.19
2018-07-09T00:43:26.645Z,63.86
2018-07-09T00:45:55.731Z,64.37
2018-07-09T00:48:24.929Z,63.64
2018-07-09T00:50:54.063Z,64.24
2018-07-09T00:53:23.119Z,64.85
2018-07-09T00:55:52.223Z,63.77
2018-07-09T00:58:21.386Z,63.03
2018-07-09T01:00:50.582Z,64.12
2018-07-09T01:03:19.660Z,63.56
2018-07-09T01:05:48.709Z,63.14
2018-07-09T01:08:17.901Z,62.76
2018-07-09T01:10:58.507Z,63.43
2018-07-09T01:13:38.943Z,62.82
2018-07-09T01:16:08.574Z,63.39
2018-07-09T01:18:37.791Z,64.65
2018-07-09T01:21:09.832Z,64.50
2018-07-09T01:23:39.326Z,64.94
2018-07-09T01:26:09.044Z,65.53
2018-07-09T01:28:38.988Z,66.47
2018-07-09T01:31:08.119Z,65.80
2018-07-09T01:33:37.264Z,66.64
2018-07-09T01:36:06.428Z,65.89
2018-07-09T01:38:35.451Z,65.55
2018-07-09T01:41:04.526Z,65.52
2018-07-09T01:43:33.571Z,66.66
2018-07-09T01:46:02.694Z,66.42
2018-07-09T01:48:32.079Z,67.29
2018-07-09T01:51:01.141Z,66.87
2018-07-09T01:53:30.388Z,67.71
2018-07-09T01:55:59.446Z,66.87
2018-07-09T01:58:28.506Z,66.76
2018-07-09T02:00:57.633Z,67.29
2018-07-09T02:03:26.690Z,67.97
2018-07-09T02:05:55.745Z,68.22
2018-07-09T02:08:24.809Z,68.06
2018-07-09T02:10:53.887Z,67.30
2018-07-09T02:13:22.920Z,67.63
2018-07-09T02:15:52.017Z,68.73
2018-07-09T02:18:21.073Z,68.97
2018-07-09T02:20:50.153Z,69.19
2018-07-09T02:23:19.181Z,69.00
2018-07-09T02:25:48.261Z,68.79
2018-07-09T02:28:17.361Z,67.81
2018-07-09T02:30:46.619Z,67.69
2018-07-09T02:33:15.709Z,67.32
2018-07-09T02:35:45.093Z,67.47
2018-07-09T02:38:14.265Z,67.52
2018-07-09T02:40:43.313Z,68.34
2018-07-09T02:43:12.361Z,68.39
2018-07-09T02:45:41.497Z,69.53
2018-07-09T02:48:10.567Z,69.57
2018-07-09T02:50:39.618Z,69.33
2018-07-09T02:53:08.707Z,69.01
2018-07-09T02:55:37.841Z,68.97
2018-07-09T02:58:06.932Z,69.02
2018-07-09T03:00:36.100Z,68.50
2018-07-09T03:03:05.178Z,69.24
2018-07-09T03:05:34.384Z,69.52
2018-07-09T03:08:03.453Z,69.86
2018-07-09T03:10:32.490Z,69.44
2018-07-09T03:13:01.561Z,69.55
2018-07-09T03:15:30.607Z,69.82
2018-07-09T03:17:59.666Z,69.60
2018-07-09T03:20:28.849Z,69.33
2018-07-09T03:22:57.984Z,69.88
2018-07-09T03:25:27.036Z,70.05
2018-07-09T03:27:56.336Z,69.75
2018-07-09T03:30:25.405Z,70.50
2018-07-09T03:32:54.556Z,70.49
2018-07-09T03:35:23.668Z,69.73
2018-07-09T03:37:52.716Z,70.56
2018-07-09T03:40:21.810Z,70.82
2018-07-09T03:42:50.862Z,70.79
2018-07-09T03:45:19.959Z,70.71
2018-07-09T03:47:48.998Z,70.54
2018-07-09T03:50:18.192Z,71.15
2018-07-09T03:52:47.246Z,71.04
2018-07-09T03:55:16.401Z,70.98
2018-07-09T03:57:45.673Z,71.50
2018-07-09T04:00:14.744Z,71.30
2018-07-09T04:02:43.811Z,71.11
2018-07-09T04:05:12.868Z,71.79
2018-07-09T04:07:41.925Z,71.10
2018-07-09T04:10:11.009Z,71.18
2018-07-09T04:12:40.062Z,70.89
2018-07-09T04:15:09.168Z,71.07
2018-07-09T04:17:38.299Z,71.76
2018-07-09T04:20:07.424Z,70.56
2018-07-09T04:22:36.560Z,71.59
2018-07-09T04:25:05.836Z,71.53
2018-07-09T04:27:34.946Z,71.38
2018-07-09T04:30:04.316Z,71.14
2018-07-09T04:32:33.454Z,72.18
2018-07-09T04:35:02.556Z,71.39
2018-07-09T04:37:31.748Z,71.06
2018-07-09T04:40:00.826Z,70.97
2018-07-09T04:42:29.921Z,71.01
2018-07-09T04:44:59.036Z,70.64
2018-07-09T04:47:28.130Z,69.61
2018-07-09T04:49:57.195Z,69.49
2018-07-09T04:52:26.288Z,70.09
2018-07-09T04:54:55.966Z,69.80
2018-07-09T04:57:25.067Z,70.31
2018-07-09T04:59:54.100Z,69.30
2018-07-09T05:02:23.234Z,69.18
2018-07-09T05:04:52.498Z,69.27
2018-07-09T05:07:21.634Z,69.22
2018-07-09T05:09:50.748Z,68.92
2018-07-09T05:12:19.866Z,68.08
2018-07-09T05:14:49.090Z,68.22
2018-07-09T05:17:18.182Z,68.52
2018-07-09T05:19:47.290Z,68.58
2018-07-09T05:22:16.398Z,68.57
2018-07-09T05:24:45.445Z,68.61
2018-07-09T05:27:14.549Z,69.04
2018-07-09T05:29:43.636Z,67.52
2018-07-09T05:32:12.702Z,67.85
2018-07-09T05:34:41.754Z,67.04
2018-07-09T05:37:10.856Z,67.31
2018-07-09T05:39:40.597Z,65.61
2018-07-09T05:42:10.247Z,65.34
2018-07-09T05:44:39.561Z,64.70
2018-07-09T05:47:09.283Z,64.49
2018-07-09T05:49:38.491Z,62.22
2018-07-09T05:52:07.533Z,62.12
2018-07-09T05:54:36.788Z,62.17
2018-07-09T05:57:05.884Z,61.45
2018-07-09T05:59:34.952Z,60.82
2018-07-09T06:02:04.060Z,61.30
2018-07-09T06:04:33.169Z,60.41
2018-07-09T06:07:02.332Z,60.70
2018-07-09T06:09:31.562Z,58.91
2018-07-09T06:12:00.877Z,60.01
2018-07-09T06:14:30.082Z,59.97
2018-07-09T06:16:59.214Z,59.91
2018-07-09T06:19:28.406Z,58.18
2018-07-09T06:21:57.497Z,58.25
2018-07-09T06:24:26.637Z,58.12
2018-07-09T06:26:55.703Z,58.38
2018-07-09T06:29:25.005Z,55.97
2018-07-09T06:31:54.065Z,57.41
2018-07-09T06:34:23.540Z,55.97
2018-07-09T06:36:52.605Z,55.55
2018-07-09T06:39:21.693Z,55.54
2018-07-09T06:41:51.129Z,55.00
2018-07-09T06:44:20.321Z,55.03
2018-07-09T06:46:49.401Z,54.62
2018-07-09T06:49:18.516Z,56.39
2018-07-09T06:51:47.573Z,55.65
2018-07-09T06:54:16.802Z,55.38
2018-07-09T06:56:45.980Z,57.21
2018-07-09T06:59:15.116Z,55.74
2018-07-09T07:01:44.180Z,55.34
2018-07-09T07:04:13.469Z,54.49
2018-07-09T07:06:42.518Z,53.70
2018-07-09T07:09:11.649Z,53.16
2018-07-09T07:11:40.680Z,54.04
2018-07-09T07:14:09.741Z,54.03
2018-07-09T07:16:38.864Z,53.74
2018-07-09T07:19:07.946Z,55.37
2018-07-09T07:21:37.156Z,53.79
2018-07-09T07:24:06.665Z,54.57
2018-07-09T07:26:35.848Z,54.36
2018-07-09T07:29:04.940Z,52.88
2018-07-09T07:31:34.717Z,53.92
2018-07-09T07:34:03.818Z,54.30
2018-07-09T07:36:32.940Z,53.89
2018-07-09T07:39:01.998Z,52.83
2018-07-09T07:41:31.224Z,53.55
2018-07-09T07:44:00.724Z,52.14
2018-07-09T07:46:29.815Z,52.78
2018-07-09T07:48:58.929Z,53.72
2018-07-09T07:51:28.050Z,50.92
2018-07-09T07:53:57.102Z,50.28
2018-07-09T07:56:26.210Z,49.80
2018-07-09T07:58:55.288Z,49.42
2018-07-09T08:01:24.427Z,50.40
2018-07-09T08:03:53.498Z,49.27
2018-07-09T08:06:22.684Z,48.39
2018-07-09T08:08:51.749Z,48.59
2018-07-09T08:11:20.917Z,48.09
2018-07-09T08:13:50.285Z,48.15
2018-07-09T08:16:19.377Z,50.07
2018-07-09T08:18:48.470Z,48.94
2018-07-09T08:21:17.689Z,48.72
2018-07-09T08:23:46.776Z,48.02
2018-07-09T08:26:15.846Z,47.75
2018-07-09T08:28:45.017Z,46.96
2018-07-09T08:31:14.226Z,46.06
2018-07-09T08:33:43.244Z,45.24
2018-07-09T08:36:12.370Z,47.01
2018-07-09T08:38:41.444Z,46.44
2018-07-09T08:41:10.552Z,47.38
2018-07-09T08:43:39.656Z,46.01
2018-07-09T08:46:08.745Z,45.51
2018-07-09T08:48:37.786Z,46.36
2018-07-09T08:51:06.884Z,43.73
2018-07-09T08:53:36.028Z,45.48
2018-07-09T08:56:05.256Z,46.89
2018-07-09T08:58:34.302Z,45.38
2018-07-09T09:01:03.385Z,45.29
2018-07-09T09:03:32.529Z,45.51
2018-07-09T09:06:01.610Z,45.54
2018-07-09T09:08:30.684Z,44.20
2018-07-09T09:10:59.782Z,44.60
2018-07-09T09:14:32.402Z,44.68
2018-07-09T09:17:03.310Z,45.35
2018-07-09T09:19:33.513Z,46.03
2018-07-09T09:22:02.590Z,44.60
2018-07-09T09:24:31.597Z,43.30
2018-07-09T09:27:00.656Z,45.17
2018-07-09T09:29:29.771Z,43.37
2018-07-09T09:31:58.954Z,40.88
2018-07-09T09:34:28.017Z,41.21
2018-07-09T09:36:57.164Z,42.47
2018-07-09T09:39:26.202Z,43.79
2018-07-09T09:41:55.264Z,44.95
2018-07-09T09:44:24.434Z,44.55
2018-07-09T09:46:54.554Z,42.74
2018-07-09T09:49:23.726Z,44.88
2018-07-09T09:51:53.724Z,45.78
2018-07-09T09:54:22.786Z,42.86
2018-07-09T09:56:51.832Z,41.52
2018-07-09T09:59:21.074Z,43.11
2018-07-09T10:01:50.277Z,43.51
2018-07-09T10:04:19.357Z,40.97
2018-07-09T10:06:48.572Z,43.58
2018-07-09T10:09:17.629Z,42.10
2018-07-09T10:11:46.971Z,41.62
2018-07-09T10:14:16.057Z,41.08
2018-07-09T10:16:45.456Z,41.36
2018-07-09T10:19:14.508Z,42.77
2018-07-09T10:21:43.637Z,41.25
2018-07-09T10:24:12.857Z,41.38
2018-07-09T10:26:42.317Z,40.72
2018-07-09T10:29:11.501Z,40.80
2018-07-09T10:31:40.698Z,39.68
2018-07-09T10:34:09.753Z,39.90
2018-07-09T10:36:38.997Z,39.98
2018-07-09T10:39:08.050Z,41.18
2018-07-09T10:41:37.142Z,36.55
2018-07-09T10:44:06.249Z,39.42
2018-07-09T10:46:35.419Z,38.48
2018-07-09T10:49:04.529Z,36.94
2018-07-09T10:51:33.597Z,41.40
2018-07-09T10:54:02.681Z,39.44
2018-07-09T10:56:31.836Z,39.60
2018-07-09T10:59:00.995Z,40.82
2018-07-09T11:01:30.336Z,40.53
2018-07-09T11:03:59.394Z,42.03
2018-07-09T11:06:28.521Z,40.11
2018-07-09T11:08:57.548Z,40.64
2018-07-09T11:11:26.624Z,39.87
2018-07-09T11:13:55.762Z,40.03
2018-07-09T11:16:25.059Z,40.29
2018-07-09T11:18:54.118Z,40.84
2018-07-09T11:21:23.202Z,40.75
2018-07-09T11:23:52.349Z,40.01
2018-07-09T11:26:21.472Z,38.74
2018-07-09T11:28:50.615Z,38.82
2018-07-09T11:31:19.770Z,37.62
2018-07-09T11:33:48.889Z,36.36
2018-07-09T11:36:18.067Z,36.28
2018-07-09T11:38:47.205Z,35.94
2018-07-09T11:41:16.464Z,34.34
2018-07-09T11:43:45.653Z,36.01
2018-07-09T11:46:14.842Z,36.54
2018-07-09T11:48:44.083Z,36.07
2018-07-09T11:51:13.248Z,33.21
2018-07-09T11:53:42.406Z,35.41
2018-07-09T11:56:11.496Z,35.07
2018-07-09T11:58:40.728Z,33.86
2018-07-09T12:01:09.868Z,32.21
2018-07-09T12:03:39.113Z,36.42
2018-07-09T12:06:08.184Z,33.69
2018-07-09T12:08:37.394Z,34.85
2018-07-09T12:11:07.065Z,36.00
2018-07-09T12:13:36.177Z,35.12
2018-07-09T12:16:05.944Z,34.48
2018-07-09T12:18:34.995Z,36.54
2018-07-09T12:21:04.649Z,36.06
2018-07-09T12:23:33.917Z,35.81
2018-07-09T12:26:03.005Z,35.86
2018-07-09T12:28:32.156Z,38.39
2018-07-09T12:31:01.293Z,33.72
2018-07-09T12:33:30.553Z,33.61
2018-07-09T12:35:59.685Z,35.88
2018-07-09T12:38:29.017Z,34.85
2018-07-09T12:40:58.070Z,31.53
2018-07-09T12:43:27.384Z,32.02
2018-07-09T12:45:56.431Z,34.11
2018-07-09T12:48:25.586Z,32.88
2018-07-09T12:50:54.773Z,31.57
2018-07-09T12:53:24.525Z,32.09
2018-07-09T12:55:53.685Z,29.97
2018-07-09T12:58:22.919Z,33.52
2018-07-09T13:00:51.950Z,33.42
2018-07-09T13:03:21.452Z,34.99
2018-07-09T13:05:50.501Z,35.13
2018-07-09T13:08:19.609Z,35.01
2018-07-09T13:10:48.671Z,33.98
2018-07-09T13:13:17.859Z,34.68
2018-07-09T13:15:46.957Z,34.49
2018-07-09T13:18:16.151Z,34.19
2018-07-09T13:20:45.232Z,32.89
2018-07-09T13:23:14.570Z,34.47
2018-07-09T13:25:43.622Z,31.53
2018-07-09T13:28:12.909Z,32.95
2018-07-09T13:30:41.972Z,32.01
2018-07-09T13:33:11.080Z,29.82
2018-07-09T13:35:40.134Z,28.10
2018-07-09T13:38:09.245Z,29.19
2018-07-09T13:40:38.766Z,27.30
2018-07-09T13:43:07.924Z,25.66
2018-07-09T13:45:37.017Z,22.69
2018-07-09T13:48:06.157Z,25.11
2018-07-09T13:50:35.611Z,25.11
2018-07-09T13:53:04.823Z,22.81
2018-07-09T13:55:34.005Z,21.45
2018-07-09T13:58:03.113Z,24.09
2018-07-09T14:00:32.241Z,22.86
2018-07-09T14:03:01.409Z,25.14
2018-07-09T14:05:30.499Z,26.78
2018-07-09T14:07:59.550Z,25.23
2018-07-09T14:10:28.663Z,25.97
2018-07-09T14:12:57.735Z,26.24
2018-07-09T14:15:26.875Z,27.37
2018-07-09T14:17:55.917Z,27.01
2018-07-09T14:20:34.067Z,29.03
2018-07-09T14:23:03.628Z,30.36
2018-07-09T14:25:32.724Z,28.44
2018-07-09T14:28:01.888Z,25.89
2018-07-09T14:30:30.988Z,25.19
2018-07-09T14:33:00.338Z,26.01
2018-07-09T14:35:29.474Z,22.59
2018-07-09T14:37:58.572Z,23.73
2018-07-09T14:40:27.908Z,23.19
2018-07-09T14:42:57.044Z,25.04
2018-07-09T14:45:26.197Z,26.06
2018-07-09T14:47:55.359Z,26.75
2018-07-09T14:50:24.757Z,26.45
2018-07-09T14:52:53.941Z,27.08
2018-07-09T14:55:23.069Z,26.08
2018-07-09T14:57:52.173Z,23.63
2018-07-09T15:00:21.237Z,26.02
2018-07-09T15:02:50.433Z,24.25
2018-07-09T15:05:19.629Z,22.91
2018-07-09T15:07:48.831Z,24.17
2018-07-09T15:10:17.912Z,25.14
2018-07-09T15:12:47.124Z,22.95
2018-07-09T15:15:16.215Z,24.56
2018-07-09T15:17:45.359Z,24.05
2018-07-09T15:20:14.509Z,23.98
2018-07-09T15:22:43.663Z,25.72
2018-07-09T15:25:12.805Z,29.04
2018-07-09T15:27:41.884Z,28.77
2018-07-09T15:30:11.002Z,27.75
2018-07-09T15:32:40.580Z,27.84
2018-07-09T15:35:10.109Z,28.96
2018-07-09T15:37:39.204Z,27.03
2018-07-09T15:40:08.452Z,26.16
2018-07-09T15:42:37.563Z,23.97
2018-07-09T15:45:06.968Z,24.16
2018-07-09T15:47:36.107Z,24.60
2018-07-09T15:50:05.238Z,23.10
2018-07-09T15:52:34.354Z,23.34
2018-07-09T15:55:03.396Z,26.19
2018-07-09T15:57:32.556Z,25.24
2018-07-09T16:00:01.691Z,26.54
2018-07-09T16:02:30.837Z,27.21
2018-07-09T16:04:59.929Z,26.65
2018-07-09T16:07:29.061Z,27.13
2018-07-09T16:09:58.145Z,24.79
2018-07-09T16:12:27.365Z,25.76
2018-07-09T16:14:56.445Z,25.43
2018-07-09T16:17:25.589Z,26.75
2018-07-09T16:19:54.675Z,25.03
2018-07-09T16:22:23.871Z,25.89
2018-07-09T16:24:53.049Z,24.97
2018-07-09T16:27:22.125Z,25.38
2018-07-09T16:29:51.209Z,25.52
2018-07-09T16:32:20.467Z,25.84
2018-07-09T16:34:49.612Z,25.59
2018-07-09T16:37:18.686Z,25.35
2018-07-09T16:39:47.805Z,26.61
2018-07-09T16:42:16.948Z,26.18
2018-07-09T16:44:46.200Z,26.31
2018-07-09T16:47:15.294Z,25.92
2018-07-09T16:49:44.394Z,26.83
2018-07-09T16:52:13.500Z,25.84
2018-07-09T16:54:42.686Z,26.53
2018-07-09T16:57:11.768Z,28.06
2018-07-09T16:59:40.888Z,26.38
2018-07-09T17:02:09.983Z,26.62
2018-07-09T17:04:39.326Z,27.00
2018-07-09T17:07:08.570Z,25.42
2018-07-09T17:09:37.773Z,26.81
2018-07-09T17:12:06.903Z,28.31
2018-07-09T17:14:35.973Z,27.21
2018-07-09T17:17:05.304Z,26.90
2018-07-09T17:19:34.469Z,28.61
2018-07-09T17:22:03.548Z,27.65
2018-07-09T17:24:32.762Z,28.20
2018-07-09T17:27:01.975Z,27.38
2018-07-09T17:29:31.142Z,27.11
2018-07-09T17:32:00.168Z,28.85
2018-07-09T17:34:29.346Z,29.43
2018-07-09T17:36:58.418Z,30.81
2018-07-09T17:39:27.492Z,29.77
2018-07-09T17:41:57.150Z,30.94
2018-07-09T17:44:26.431Z,31.23
2018-07-09T17:46:55.704Z,33.32
2018-07-09T17:49:24.829Z,33.40
2018-07-09T17:51:53.913Z,33.11
2018-07-09T17:54:23.024Z,32.49
2018-07-09T17:56:52.249Z,32.85
2018-07-09T17:59:21.305Z,32.42
2018-07-09T18:01:50.420Z,33.55
2018-07-09T18:04:19.798Z,34.67
2018-07-09T18:06:49.048Z,34.31
2018-07-09T18:09:18.178Z,35.71
2018-07-09T18:11:47.403Z,34.90
2018-07-09T18:14:16.524Z,36.86
2018-07-09T18:16:45.688Z,34.44
2018-07-09T18:19:14.909Z,33.53
2018-07-09T18:21:43.993Z,33.96
2018-07-09T18:24:13.065Z,35.44
2018-07-09T18:26:42.162Z,35.22
2018-07-09T18:29:12.073Z,37.27
2018-07-09T18:31:41.208Z,36.53
2018-07-09T18:34:10.300Z,38.61
2018-07-09T18:36:39.370Z,40.88
2018-07-09T18:39:08.492Z,39.30
2018-07-09T18:41:37.676Z,39.60
2018-07-09T18:44:07.062Z,41.25
2018-07-09T18:46:36.156Z,40.92
2018-07-09T18:49:05.571Z,42.18
2018-07-09T18:51:34.838Z,41.80
2018-07-09T18:54:03.954Z,42.64
2018-07-09T18:56:33.186Z,43.65
2018-07-09T18:59:02.285Z,45.05
2018-07-09T19:01:31.441Z,45.09
2018-07-09T19:04:00.569Z,44.84
2018-07-09T19:06:44.227Z,45.67
2018-07-09T19:09:13.309Z,45.82
2018-07-09T19:11:42.721Z,44.63
2018-07-09T19:14:12.318Z,46.46
2018-07-09T19:16:53.539Z,46.64
2018-07-09T19:19:34.976Z,47.40
2018-07-09T19:22:04.332Z,47.41
2018-07-09T19:24:32.864Z,48.37
2018-07-09T19:27:01.161Z,47.45
2018-07-09T19:29:29.175Z,48.79
2018-07-09T19:31:57.200Z,48.67
2018-07-09T19:34:25.201Z,48.38
2018-07-09T19:36:53.300Z,48.78
2018-07-09T19:39:21.237Z,49.27
2018-07-09T19:41:49.261Z,48.83
2018-07-09T19:44:17.364Z,49.69
2018-07-09T19:46:45.400Z,50.07
2018-07-09T19:49:13.445Z,51.03
2018-07-09T19:51:41.432Z,50.92
2018-07-09T19:54:09.450Z,49.75
2018-07-09T19:56:37.485Z,50.82
2018-07-09T19:59:05.501Z,50.50
2018-07-09T20:01:33.505Z,51.47
2018-07-09T20:04:01.533Z,51.75
2018-07-09T20:06:29.535Z,51.75
2018-07-09T20:10:03.546Z,51.98
2018-07-09T20:12:36.845Z,51.96
2018-07-09T20:15:10.264Z,52.82
2018-07-09T20:17:42.472Z,52.38
2018-07-09T20:20:10.561Z,53.46
2018-07-09T20:22:38.613Z,52.89
2018-07-09T20:25:06.610Z,53.00
2018-07-09T20:27:34.645Z,53.39
2018-07-09T20:30:02.648Z,53.65
2018-07-09T20:32:30.786Z,53.54
2018-07-09T20:34:58.820Z,53.82
2018-07-09T20:37:26.834Z,54.86
2018-07-09T20:39:54.954Z,55.27
2018-07-09T20:42:23.107Z,54.51
2018-07-09T20:44:51.122Z,54.08
2018-07-09T20:47:19.345Z,54.17
2018-07-09T20:49:47.493Z,53.56
2018-07-09T20:52:15.485Z,54.26
2018-07-09T20:54:43.551Z,53.65
2018-07-09T20:57:11.741Z,53.82
2018-07-09T20:59:39.864Z,53.49
2018-07-09T21:02:07.866Z,53.55
2018-07-09T21:04:35.874Z,53.44
2018-07-09T21:07:04.276Z,54.45
2018-07-09T21:09:33.357Z,53.78
2018-07-09T21:12:06.654Z,53.40
2018-07-09T21:14:34.706Z,54.69
2018-07-09T21:17:02.709Z,54.60
2018-07-09T21:19:30.702Z,54.62
2018-07-09T21:21:58.767Z,53.88
2018-07-09T21:24:26.736Z,54.90
2018-07-09T21:26:54.765Z,55.12
2018-07-09T21:29:22.784Z,55.54
2018-07-09T21:31:50.801Z,55.24
2018-07-09T21:34:18.800Z,54.77
2018-07-09T21:36:46.822Z,55.33
2018-07-09T21:39:14.830Z,55.43
2018-07-09T21:41:42.865Z,55.18
2018-07-09T21:44:10.861Z,55.53
2018-07-09T21:46:38.889Z,55.22
2018-07-09T21:49:06.892Z,55.99
2018-07-09T21:51:34.912Z,56.01
2018-07-09T21:54:02.918Z,56.92
2018-07-09T21:56:30.994Z,56.94
2018-07-09T21:58:58.955Z,56.55
2018-07-09T22:01:26.983Z,56.23
2018-07-09T22:03:54.981Z,56.52
2018-07-09T22:06:23.021Z,55.85
2018-07-09T22:08:51.033Z,56.45
2018-07-09T22:11:19.079Z,56.91
2018-07-09T22:13:47.135Z,57.97
2018-07-09T22:16:15.159Z,57.15
2018-07-09T22:18:43.168Z,56.48
2018-07-09T22:21:11.172Z,55.78
2018-07-09T22:23:39.198Z,55.23
2018-07-09T22:26:07.201Z,55.60
2018-07-09T22:28:35.227Z,54.79
2018-07-09T22:31:04.281Z,54.81
2018-07-09T22:33:33.373Z,55.75
2018-07-09T22:36:02.431Z,56.28
2018-07-09T22:38:31.509Z,55.08
2018-07-09T22:41:00.541Z,54.75
2018-07-09T22:43:40.964Z,54.17
2018-07-09T22:46:10.063Z,53.71
2018-07-09T22:48:39.150Z,54.70
2018-07-09T22:51:08.284Z,53.17
2018-07-09T22:53:37.302Z,53.24
2018-07-09T22:56:11.233Z,51.57
2018-07-09T22:58:41.485Z,51.72
2018-07-09T23:01:10.529Z,53.07
2018-07-09T23:03:39.613Z,50.97
2018-07-09T23:06:08.665Z,51.03
2018-07-09T23:08:37.761Z,52.08
2018-07-09T23:12:21.074Z,52.09
2018-07-09T23:17:13.784Z,52.24
2018-07-09T23:22:20.730Z,52.69
2018-07-09T23:24:48.730Z,52.88
2018-07-09T23:27:16.753Z,53.45
2018-07-09T23:29:44.817Z,53.74
2018-07-09T23:32:12.800Z,54.33
2018-07-09T23:34:40.813Z,54.52
2018-07-09T23:37:08.804Z,55.03
2018-07-09T23:39:36.822Z,54.73
2018-07-09T23:42:04.856Z,55.04
2018-07-09T23:44:32.850Z,56.16
2018-07-09T23:47:00.862Z,56.65
2018-07-09T23:49:28.853Z,56.52
2018-07-09T23:51:56.885Z,55.32
2018-07-09T23:54:24.893Z,55.75
2018-07-09T23:57:08.393Z,54.30
2018-07-09T23:59:49.913Z,53.59
